Time;durP1;ratioP1;P1;durP2;ratioP2;P2;SDS_P1;SDS_P2;PMS_P1;PMS_P2;Temp;Humidity;BMP_temperature;BMP_pressure;BME280_temperature;BME280_humidity;BME280_pressure;Samples;Min_cycle;Max_cycle;Signal;HPM_P1;HPM_P2
2023/11/16 00:02:04;;;;;;;11.60;2.20;;;9.70;99.90;;;;;;5152669;27;20465;-54
2023/11/16 00:04:33;;;;;;;10.32;1.35;;;9.80;99.90;;;;;;5156053;27;20496;-55
2023/11/16 00:06:59;;;;;;;9.38;1.55;;;9.80;99.90;;;;;;5155967;27;20114;-55
2023/11/16 00:09:25;;;;;;;16.10;2.38;;;9.80;99.90;;;;;;5155689;27;20108;-55
2023/11/16 00:11:52;;;;;;;11.43;1.38;;;9.80;99.90;;;;;;5156100;27;20030;-55
2023/11/16 00:14:18;;;;;;;14.20;2.10;;;9.70;99.90;;;;;;5155709;27;20464;-55
2023/11/16 00:16:44;;;;;;;8.57;1.67;;;9.70;99.90;;;;;;5149666;27;20035;-55
2023/11/16 00:19:10;;;;;;;11.88;1.65;;;9.60;99.90;;;;;;5155611;27;20114;-54
2023/11/16 00:21:36;;;;;;;6.55;1.30;;;9.60;99.90;;;;;;5155720;27;20170;-55
2023/11/16 00:24:05;;;;;;;12.27;1.73;;;9.60;99.90;;;;;;5155561;27;20039;-55
2023/11/16 00:26:33;;;;;;;9.65;1.63;;;9.60;99.90;;;;;;5155386;27;20034;-53
2023/11/16 00:29:00;;;;;;;11.60;2.10;;;9.70;99.90;;;;;;5155714;27;20085;-53
2023/11/16 00:31:27;;;;;;;11.02;2.08;;;9.70;99.90;;;;;;5155777;27;20039;-54
2023/11/16 00:33:53;;;;;;;9.05;1.75;;;9.80;99.90;;;;;;5155810;27;20035;-55
2023/11/16 00:36:19;;;;;;;6.13;1.35;;;9.80;99.90;;;;;;5155322;27;20380;-55
2023/11/16 00:38:45;;;;;;;12.68;1.70;;;9.80;99.90;;;;;;5155232;27;20103;-54
2023/11/16 00:41:15;;;;;;;10.80;2.55;;;9.90;99.90;;;;;;5155139;27;20530;-55
2023/11/16 00:43:41;;;;;;;10.48;2.42;;;10.00;99.90;;;;;;5155231;27;20050;-55
2023/11/16 00:46:09;;;;;;;9.18;1.70;;;10.00;99.90;;;;;;5155287;27;20168;-55
2023/11/16 00:48:35;;;;;;;5.63;1.40;;;10.00;99.90;;;;;;5155396;27;20039;-55
2023/11/16 00:51:01;;;;;;;14.40;3.83;;;10.00;99.90;;;;;;5155294;27;20042;-55
2023/11/16 00:53:29;;;;;;;12.55;3.78;;;10.10;99.90;;;;;;5154960;27;20314;-56
2023/11/16 00:55:55;;;;;;;18.35;3.25;;;10.10;99.90;;;;;;5126096;27;20038;-56
2023/11/16 00:58:21;;;;;;;13.40;2.67;;;10.10;99.90;;;;;;5155214;27;20039;-55
2023/11/16 01:00:51;;;;;;;12.85;2.38;;;10.10;99.90;;;;;;5154502;27;20042;-56
2023/11/16 01:03:18;;;;;;;10.07;2.80;;;10.10;99.90;;;;;;5154567;27;20093;-55
2023/11/16 01:05:47;;;;;;;13.02;2.72;;;10.10;99.90;;;;;;5154782;27;20737;-55
2023/11/16 01:08:16;;;;;;;12.35;2.45;;;10.00;99.90;;;;;;5154766;27;20396;-56
2023/11/16 01:10:43;;;;;;;;;;;9.90;99.90;;;;;;5154747;27;20031;-55
2023/11/16 01:13:10;;;;;;;10.15;2.15;;;9.90;99.90;;;;;;5154489;27;19919;-55
2023/11/16 01:15:39;;;;;;;11.48;1.38;;;9.90;99.90;;;;;;5154497;27;20046;-56
2023/11/16 01:18:12;;;;;;;8.68;1.95;;;9.80;99.90;;;;;;5139734;27;20035;-54
2023/11/16 01:20:42;;;;;;;8.65;0.90;;;9.80;99.90;;;;;;5154530;27;20042;-55
2023/11/16 01:23:12;;;;;;;4.85;0.93;;;9.80;99.90;;;;;;5154107;27;20046;-55
2023/11/16 01:25:41;;;;;;;7.97;1.45;;;9.70;99.90;;;;;;5154384;27;20034;-56
2023/11/16 01:28:07;;;;;;;;;;;9.70;99.90;;;;;;5154743;27;20038;-55
2023/11/16 01:30:33;;;;;;;7.38;1.35;;;9.70;99.90;;;;;;5154339;27;19915;-55
2023/11/16 01:32:59;;;;;;;5.68;1.73;;;9.70;99.90;;;;;;5146381;27;20106;-55
2023/11/16 01:35:25;;;;;;;8.13;1.75;;;9.60;99.90;;;;;;5153184;27;20480;-55
2023/11/16 01:37:52;;;;;;;15.45;2.65;;;9.60;99.90;;;;;;5154451;27;20125;-56
2023/11/16 01:40:21;;;;;;;9.18;3.33;;;9.60;99.90;;;;;;5153902;27;20035;-55
2023/11/16 01:42:46;;;;;;;7.78;2.45;;;9.60;99.90;;;;;;5153789;27;20126;-55
2023/11/16 01:45:38;;;;;;;9.85;2.55;;;9.40;99.90;;;;;;5153839;27;20117;-55
2023/11/16 01:48:08;;;;;;;7.28;3.28;;;9.40;99.90;;;;;;5124325;27;20044;-55
2023/11/16 01:50:36;;;;;;;8.65;2.85;;;9.40;99.90;;;;;;5127247;27;20041;-46
2023/11/16 01:53:10;;;;;;;9.40;2.90;;;9.30;99.90;;;;;;5123247;27;20071;-44
2023/11/16 01:55:40;;;;;;;9.38;2.53;;;9.30;99.90;;;;;;5131700;27;20050;-44
2023/11/16 01:58:06;;;;;;;10.95;2.83;;;9.20;99.90;;;;;;5120985;27;20503;-43
2023/11/16 02:00:36;;;;;;;11.80;2.90;;;9.20;99.90;;;;;;5132978;27;20117;-45
2023/11/16 02:03:04;;;;;;;9.48;2.97;;;9.20;99.90;;;;;;5133162;27;20488;-44
2023/11/16 02:05:34;;;;;;;7.75;2.80;;;9.30;99.90;;;;;;5119871;27;20088;-44
2023/11/16 02:08:08;;;;;;;15.85;2.88;;;9.30;99.90;;;;;;5133112;27;20039;-42
2023/11/16 02:10:35;;;;;;;10.48;3.67;;;9.20;99.90;;;;;;5153786;27;20035;-42
2023/11/16 02:13:04;;;;;;;10.50;3.60;;;9.20;99.90;;;;;;5153477;27;20042;-42
2023/11/16 02:15:31;;;;;;;;;;;9.20;99.90;;;;;;5152835;27;20492;-43
2023/11/16 02:17:58;;;;;;;11.43;4.38;;;9.20;99.90;;;;;;5147606;27;19920;-54
2023/11/16 02:20:24;;;;;;;8.48;2.60;;;9.20;99.90;;;;;;5146566;27;20031;-55
2023/11/16 02:22:53;;;;;;;13.48;2.90;;;9.30;99.90;;;;;;5123105;27;20173;-56
2023/11/16 02:25:19;;;;;;;4.85;3.00;;;9.20;99.90;;;;;;5132646;27;20099;-55
2023/11/16 02:27:45;;;;;;;11.98;3.00;;;9.20;99.90;;;;;;5132704;28;20038;-55
2023/11/16 02:30:12;;;;;;;9.10;1.98;;;9.20;99.90;;;;;;5132703;28;20027;-56
2023/11/16 02:32:39;;;;;;;5.88;2.67;;;9.10;99.90;;;;;;5132704;28;20110;-55
2023/11/16 02:35:04;;;;;;;7.13;2.10;;;9.10;99.90;;;;;;5132599;28;20054;-55
2023/11/16 02:37:30;;;;;;;17.27;2.83;;;9.20;99.90;;;;;;5132558;28;20036;-55
2023/11/16 02:39:56;;;;;;;5.25;1.60;;;9.20;99.90;;;;;;5132476;28;20426;-56
2023/11/16 02:42:22;;;;;;;8.00;1.23;;;9.00;99.90;;;;;;5122057;28;20035;-55
2023/11/16 02:44:48;;;;;;;5.55;0.95;;;9.00;99.90;;;;;;5132672;28;20112;-55
2023/11/16 02:47:14;;;;;;;9.93;1.30;;;9.00;99.90;;;;;;5132718;28;20035;-55
2023/11/16 02:49:42;;;;;;;8.70;1.17;;;9.00;99.90;;;;;;5132509;28;20493;-56
2023/11/16 02:52:10;;;;;;;8.33;2.53;;;9.00;99.90;;;;;;5132641;28;20096;-55
2023/11/16 02:54:38;;;;;;;4.22;1.42;;;9.00;99.90;;;;;;5132569;28;21145;-55
2023/11/16 02:57:05;;;;;;;6.15;1.50;;;8.90;99.90;;;;;;5099795;28;20039;-46
2023/11/16 02:59:31;;;;;;;5.30;1.20;;;8.80;99.90;;;;;;5146108;27;20038;-43
2023/11/16 03:01:58;;;;;;;2.95;0.88;;;8.80;99.90;;;;;;5134835;27;20621;-43
2023/11/16 03:04:24;;;;;;;8.88;1.45;;;8.80;99.90;;;;;;5153690;27;20145;-43
2023/11/16 03:06:51;;;;;;;5.35;2.20;;;8.80;99.90;;;;;;5153149;27;20080;-42
2023/11/16 03:09:17;;;;;;;7.35;1.30;;;8.80;99.90;;;;;;5153254;27;20066;-42
2023/11/16 03:11:43;;;;;;;5.43;1.17;;;8.70;99.90;;;;;;5152856;27;20409;-46
2023/11/16 03:14:09;;;;;;;5.82;1.02;;;8.70;99.90;;;;;;5123862;27;20118;-46
2023/11/16 03:16:44;;;;;;;6.50;0.88;;;8.70;99.90;;;;;;5152854;27;20035;-45
2023/11/16 03:19:09;;;;;;;5.25;0.90;;;8.60;99.90;;;;;;5143963;27;20104;-47
2023/11/16 03:21:36;;;;;;;8.25;1.05;;;8.50;99.90;;;;;;5142430;27;20480;-44
2023/11/16 03:24:01;;;;;;;5.85;1.25;;;8.50;99.90;;;;;;5152852;27;20113;-44
2023/11/16 03:26:27;;;;;;;3.50;1.02;;;8.50;99.90;;;;;;5153110;27;20122;-45
2023/11/16 03:28:53;;;;;;;6.95;1.45;;;8.50;99.90;;;;;;5157020;27;20138;-48
2023/11/16 03:31:19;;;;;;;3.85;0.82;;;8.40;99.90;;;;;;5156923;27;20042;-44
2023/11/16 03:33:45;;;;;;;3.28;0.77;;;8.30;99.90;;;;;;5156683;27;20034;-47
2023/11/16 03:36:10;;;;;;;7.90;2.22;;;8.40;99.90;;;;;;5144022;27;20110;-46
2023/11/16 03:38:36;;;;;;;7.95;3.33;;;8.30;99.90;;;;;;5135765;27;20043;-44
2023/11/16 03:41:02;;;;;;;9.75;4.20;;;8.40;99.90;;;;;;5135978;27;20035;-45
2023/11/16 03:43:27;;;;;;;9.57;3.25;;;8.30;99.90;;;;;;5135533;27;20079;-45
2023/11/16 03:45:53;;;;;;;4.75;1.42;;;8.30;99.90;;;;;;5135587;27;20561;-43
2023/11/16 03:48:22;;;;;;;10.02;1.20;;;8.30;99.90;;;;;;5135668;27;20173;-43
2023/11/16 03:50:48;;;;;;;6.72;1.98;;;8.20;99.90;;;;;;5135584;27;20039;-43
2023/11/16 03:53:13;;;;;;;3.75;1.52;;;8.20;99.90;;;;;;5135615;27;20037;-44
2023/11/16 03:55:39;;;;;;;7.03;2.05;;;8.10;99.90;;;;;;5131155;27;20489;-45
2023/11/16 03:58:05;;;;;;;5.40;1.55;;;8.00;99.90;;;;;;5125796;27;20396;-43
2023/11/16 04:00:31;;;;;;;4.45;1.80;;;7.90;99.90;;;;;;5135328;27;20052;-44
2023/11/16 04:02:59;;;;;;;3.63;1.45;;;8.00;99.90;;;;;;5135391;27;20039;-44
2023/11/16 04:05:26;;;;;;;8.55;1.38;;;7.90;99.90;;;;;;5135051;27;20388;-44
2023/11/16 04:07:55;;;;;;;6.43;2.15;;;8.00;99.90;;;;;;5135439;27;20057;-42
2023/11/16 04:10:21;;;;;;;5.53;0.95;;;7.90;99.90;;;;;;5150713;27;20026;-45
2023/11/16 04:12:46;;;;;;;7.07;1.33;;;7.90;99.90;;;;;;5155476;27;20042;-45
2023/11/16 04:15:13;;;;;;;4.05;1.27;;;7.80;99.90;;;;;;5137087;27;20027;-43
2023/11/16 04:17:45;;;;;;;4.78;0.80;;;7.80;99.90;;;;;;5155642;27;20062;-45
2023/11/16 04:20:12;;;;;;;5.05;0.93;;;7.80;99.90;;;;;;5150907;27;20589;-43
2023/11/16 04:22:39;;;;;;;4.18;1.00;;;7.80;99.90;;;;;;5142477;27;20056;-45
2023/11/16 04:25:36;;;;;;;4.00;1.38;;;7.80;99.90;;;;;;5155332;27;20095;-45
2023/11/16 04:28:02;;;;;;;6.07;0.90;;;7.80;99.90;;;;;;5154801;27;20034;-44
2023/11/16 04:30:30;;;;;;;6.20;1.33;;;7.70;99.90;;;;;;5154965;27;20066;-42
2023/11/16 04:32:59;;;;;;;4.18;1.20;;;7.80;99.90;;;;;;5155514;27;20513;-45
2023/11/16 04:35:25;;;;;;;8.63;1.90;;;7.90;99.90;;;;;;5155074;27;20035;-44
2023/11/16 04:37:53;;;;;;;5.70;1.33;;;7.90;99.90;;;;;;5155062;27;20095;-43
2023/11/16 04:40:20;;;;;;;4.75;1.02;;;7.90;99.90;;;;;;5135966;27;20050;-45
2023/11/16 04:42:47;;;;;;;4.15;1.25;;;7.90;99.90;;;;;;5154870;27;20038;-43
2023/11/16 04:45:14;;;;;;;6.25;0.82;;;8.00;99.90;;;;;;5155084;27;20055;-45
2023/11/16 04:47:44;;;;;;;5.47;1.10;;;7.90;99.90;;;;;;5155007;27;20372;-44
2023/11/16 04:50:13;;;;;;;2.10;0.80;;;8.00;99.90;;;;;;5155184;27;20039;-42
2023/11/16 04:52:41;;;;;;;;;;;7.90;99.90;;;;;;5155389;27;20039;-43
2023/11/16 04:55:07;;;;;;;7.40;1.58;;;7.90;99.90;;;;;;5154935;27;19919;-43
2023/11/16 04:57:33;;;;;;;3.38;1.10;;;7.90;99.90;;;;;;5119696;27;20039;-43
2023/11/16 04:59:58;;;;;;;2.45;1.30;;;7.90;99.90;;;;;;5134387;27;20050;-43
2023/11/16 05:02:25;;;;;;;2.70;0.63;;;8.00;99.90;;;;;;5115409;27;20389;-42
2023/11/16 05:04:53;;;;;;;1.77;0.80;;;7.90;99.90;;;;;;5148970;27;20038;-43
2023/11/16 05:07:19;;;;;;;5.13;0.83;;;8.00;99.90;;;;;;5154810;27;20074;-49
2023/11/16 05:09:45;;;;;;;5.50;0.70;;;7.80;99.90;;;;;;5154436;27;20303;-44
2023/11/16 05:12:11;;;;;;;5.93;0.70;;;7.80;99.90;;;;;;5136141;27;20083;-44
2023/11/16 05:14:37;;;;;;;3.25;1.15;;;7.70;99.90;;;;;;5154489;27;20035;-42
2023/11/16 05:17:03;;;;;;;7.07;0.93;;;7.70;99.90;;;;;;5154817;27;20161;-45
2023/11/16 05:19:29;;;;;;;4.35;1.05;;;7.60;99.90;;;;;;5154615;27;20049;-42
2023/11/16 05:21:55;;;;;;;1.80;0.70;;;7.60;99.90;;;;;;5144960;27;20047;-44
2023/11/16 05:24:21;;;;;;;4.65;1.05;;;7.60;99.90;;;;;;5146660;27;20043;-43
2023/11/16 05:26:47;;;;;;;4.03;0.85;;;7.60;99.90;;;;;;5153428;27;20043;-43
2023/11/16 05:29:13;;;;;;;4.90;1.15;;;7.50;99.90;;;;;;5154109;27;20031;-44
2023/11/16 05:31:38;;;;;;;3.95;1.02;;;7.50;99.90;;;;;;5154073;27;20054;-45
2023/11/16 05:34:07;;;;;;;3.60;1.30;;;7.60;99.90;;;;;;5154189;27;20049;-42
2023/11/16 05:36:34;;;;;;;5.30;1.15;;;7.60;99.90;;;;;;5135493;27;20055;-43
2023/11/16 05:39:00;;;;;;;2.88;1.10;;;7.60;99.90;;;;;;5154064;27;20042;-44
2023/11/16 05:41:27;;;;;;;4.95;1.52;;;7.60;99.90;;;;;;5126886;27;20039;-44
2023/11/16 05:43:53;;;;;;;4.15;1.10;;;7.60;99.90;;;;;;5153038;27;20085;-42
2023/11/16 05:46:19;;;;;;;6.65;1.33;;;7.60;99.90;;;;;;5146736;27;20039;-42
2023/11/16 05:48:45;;;;;;;6.70;1.15;;;7.50;99.90;;;;;;5151079;27;20034;-43
2023/11/16 05:51:11;;;;;;;5.28;1.50;;;7.50;99.90;;;;;;5153790;27;20457;-42
2023/11/16 05:53:38;;;;;;;7.50;1.50;;;7.40;99.90;;;;;;5153514;27;20484;-43
2023/11/16 05:56:04;;;;;;;8.00;1.60;;;7.40;99.90;;;;;;5137844;27;20047;-43
2023/11/16 05:58:29;;;;;;;4.45;0.98;;;7.30;99.90;;;;;;5126808;27;20039;-42
2023/11/16 06:00:55;;;;;;;4.53;0.75;;;7.30;99.90;;;;;;5132904;27;20049;-42
2023/11/16 06:03:26;;;;;;;8.15;1.00;;;7.30;99.90;;;;;;5132869;27;20034;-43
2023/11/16 06:05:53;;;;;;;5.55;0.77;;;7.30;99.90;;;;;;5133043;27;20043;-45
2023/11/16 06:08:19;;;;;;;7.88;0.98;;;7.20;99.90;;;;;;5132627;27;20062;-44
2023/11/16 06:10:44;;;;;;;6.78;1.52;;;7.10;99.90;;;;;;5132839;27;20074;-44
2023/11/16 06:13:10;;;;;;;5.80;0.70;;;7.10;99.90;;;;;;5133112;27;20541;-44
2023/11/16 06:15:36;;;;;;;4.80;1.10;;;7.10;99.90;;;;;;5132696;27;20405;-43
2023/11/16 06:18:02;;;;;;;4.63;0.90;;;7.10;99.90;;;;;;5132725;27;20374;-44
2023/11/16 06:20:29;;;;;;;5.78;1.10;;;7.10;99.90;;;;;;5132558;27;20077;-44
2023/11/16 06:22:55;;;;;;;5.38;1.23;;;7.10;99.90;;;;;;5129992;27;20042;-43
2023/11/16 06:25:20;;;;;;;2.33;1.10;;;7.10;99.90;;;;;;5132433;27;20118;-44
2023/11/16 06:27:47;;;;;;;10.63;1.10;;;7.10;99.90;;;;;;5132418;27;20130;-44
2023/11/16 06:30:14;;;;;;;3.42;1.00;;;7.00;99.90;;;;;;5132355;28;20095;-44
2023/11/16 06:32:40;;;;;;;9.32;1.13;;;7.00;99.90;;;;;;5132108;27;20069;-44
2023/11/16 06:35:06;;;;;;;3.28;0.98;;;7.00;99.90;;;;;;5132845;28;20432;-42
2023/11/16 06:37:32;;;;;;;4.97;1.20;;;6.90;99.90;;;;;;5132455;28;20108;-44
2023/11/16 06:39:58;;;;;;;5.22;1.00;;;6.90;99.90;;;;;;5132341;27;20039;-46
2023/11/16 06:42:24;;;;;;;5.03;1.40;;;6.90;99.90;;;;;;5132628;28;20082;-44
2023/11/16 06:44:50;;;;;;;5.60;1.38;;;6.90;99.90;;;;;;5132130;28;20078;-42
2023/11/16 06:47:17;;;;;;;7.13;1.60;;;6.90;99.90;;;;;;5132300;28;20089;-41
2023/11/16 06:49:49;;;;;;;7.10;1.85;;;6.90;99.90;;;;;;5132240;28;20073;-41
2023/11/16 06:52:17;;;;;;;5.38;1.65;;;6.90;99.90;;;;;;5132575;28;20050;-44
2023/11/16 06:54:42;;;;;;;11.75;2.80;;;6.90;99.90;;;;;;5136637;27;20047;-44
2023/11/16 06:57:09;;;;;;;7.05;2.15;;;6.80;99.90;;;;;;5121601;27;20043;-41
2023/11/16 06:59:35;;;;;;;9.27;2.22;;;6.80;99.90;;;;;;5144433;27;20046;-41
2023/11/16 07:02:03;;;;;;;8.40;2.30;;;6.80;99.90;;;;;;5153784;27;20082;-44
2023/11/16 07:04:30;;;;;;;8.15;2.28;;;6.80;99.90;;;;;;5136190;27;20145;-44
2023/11/16 07:06:56;;;;;;;4.65;1.70;;;6.70;99.90;;;;;;5157088;27;20543;-43
2023/11/16 07:09:26;;;;;;;4.75;1.35;;;6.70;99.90;;;;;;5157422;27;20027;-43
2023/11/16 07:11:52;;;;;;;6.10;1.40;;;6.60;99.90;;;;;;5157117;27;20041;-42
2023/11/16 07:14:19;;;;;;;9.80;1.50;;;6.60;99.90;;;;;;5157093;27;20035;-44
2023/11/16 07:16:45;;;;;;;9.57;1.52;;;6.60;99.90;;;;;;5156930;27;20579;-43
2023/11/16 07:19:12;;;;;;;4.70;1.52;;;6.60;99.90;;;;;;5156917;27;20123;-43
2023/11/16 07:21:38;;;;;;;9.02;1.65;;;6.60;99.90;;;;;;5157211;27;20046;-45
2023/11/16 07:24:05;;;;;;;6.22;1.73;;;6.60;99.90;;;;;;5150315;27;20038;-43
2023/11/16 07:26:31;;;;;;;6.90;1.80;;;6.60;99.90;;;;;;5156378;27;20057;-42
2023/11/16 07:28:57;;;;;;;5.90;1.20;;;6.60;99.90;;;;;;5156273;27;20453;-43
2023/11/16 07:31:24;;;;;;;5.05;1.80;;;6.60;99.90;;;;;;5156568;27;20110;-42
2023/11/16 07:33:52;;;;;;;8.55;1.77;;;6.60;99.90;;;;;;5156070;27;20400;-42
2023/11/16 07:36:27;;;;;;;7.38;1.52;;;6.60;99.90;;;;;;5156581;27;20039;-42
2023/11/16 07:38:57;;;;;;;3.17;1.20;;;6.50;99.90;;;;;;5156455;27;20068;-43
2023/11/16 07:41:28;;;;;;;6.00;1.20;;;6.40;99.90;;;;;;5156663;27;20038;-44
2023/11/16 07:43:54;;;;;;;6.30;1.60;;;6.40;99.90;;;;;;5138115;27;20058;-44
2023/11/16 07:46:20;;;;;;;5.60;1.80;;;6.50;99.90;;;;;;5156048;27;20035;-45
2023/11/16 07:48:46;;;;;;;2.90;1.40;;;6.50;99.90;;;;;;5156380;27;20039;-43
2023/11/16 07:51:12;;;;;;;5.13;1.40;;;6.50;99.90;;;;;;5156577;27;20091;-45
2023/11/16 07:53:41;;;;;;;7.13;1.65;;;6.60;99.90;;;;;;5156240;27;20480;-43
2023/11/16 07:56:08;;;;;;;4.47;1.63;;;6.50;99.90;;;;;;5138892;27;20047;-42
2023/11/16 07:58:39;;;;;;;4.32;1.30;;;6.60;99.90;;;;;;5129374;27;20047;-44
2023/11/16 08:01:11;;;;;;;2.47;1.27;;;6.60;99.90;;;;;;5135240;27;20092;-46
2023/11/16 08:03:46;;;;;;;7.18;1.73;;;6.70;99.90;;;;;;5135716;27;20107;-45
2023/11/16 08:06:13;;;;;;;5.32;1.58;;;6.60;99.90;;;;;;5116920;27;20122;-42
2023/11/16 08:08:45;;;;;;;3.58;1.20;;;6.60;99.90;;;;;;5099989;27;20110;-47
2023/11/16 08:11:11;;;;;;;4.78;1.35;;;6.70;99.90;;;;;;5134984;27;20482;-46
2023/11/16 08:13:47;;;;;;;5.38;1.40;;;6.70;99.90;;;;;;5135071;27;20035;-43
2023/11/16 08:16:15;;;;;;;7.53;1.67;;;6.70;99.90;;;;;;5134967;27;20031;-44
2023/11/16 08:18:42;;;;;;;6.32;1.55;;;6.60;99.90;;;;;;5135323;27;20054;-42
2023/11/16 08:21:09;;;;;;;4.50;1.35;;;6.70;99.90;;;;;;5135322;27;20035;-41
2023/11/16 08:23:41;;;;;;;7.88;1.70;;;6.60;99.90;;;;;;5135107;27;20568;-44
2023/11/16 08:26:08;;;;;;;5.22;1.50;;;6.60;99.90;;;;;;5134728;27;20043;-42
2023/11/16 08:28:39;;;;;;;7.17;1.77;;;6.60;99.90;;;;;;5135087;27;20397;-41
2023/11/16 08:31:06;;;;;;;5.45;1.73;;;6.60;99.90;;;;;;5134499;27;20046;-44
2023/11/16 08:33:33;;;;;;;8.18;2.00;;;6.60;99.90;;;;;;5135052;27;20034;-43
2023/11/16 08:36:00;;;;;;;5.72;1.65;;;6.70;99.90;;;;;;5134578;27;20039;-43
2023/11/16 08:38:26;;;;;;;4.93;1.85;;;6.70;99.90;;;;;;5134409;27;20433;-42
2023/11/16 08:40:53;;;;;;;6.78;1.90;;;6.70;99.90;;;;;;5134665;27;20077;-41
2023/11/16 08:43:19;;;;;;;5.25;2.28;;;6.60;99.90;;;;;;5134388;27;20051;-41
2023/11/16 08:45:45;;;;;;;6.18;2.60;;;6.80;99.90;;;;;;5134245;27;20051;-44
2023/11/16 08:48:15;;;;;;;12.57;3.40;;;7.00;99.90;;;;;;5115703;27;20081;-41
2023/11/16 08:50:42;;;;;;;11.88;2.78;;;7.00;99.90;;;;;;5134248;27;20059;-42
2023/11/16 08:53:08;;;;;;;13.10;3.13;;;7.10;99.90;;;;;;5134307;27;20036;-43
2023/11/16 08:55:34;;;;;;;7.32;3.42;;;7.30;99.90;;;;;;5130504;27;20039;-42
2023/11/16 08:58:00;;;;;;;9.30;2.88;;;7.40;99.90;;;;;;5123486;27;20473;-42
2023/11/16 09:00:37;;;;;;;5.53;1.90;;;7.50;99.90;;;;;;5133936;27;20035;-44
2023/11/16 09:03:08;;;;;;;6.80;2.00;;;7.60;99.90;;;;;;5133951;27;20507;-45
2023/11/16 09:05:38;;;;;;;4.45;1.60;;;7.70;99.90;;;;;;5133721;27;20040;-44
2023/11/16 09:08:04;;;;;;;5.95;1.95;;;7.80;99.90;;;;;;5134157;27;20051;-45
2023/11/16 09:10:31;;;;;;;7.45;1.73;;;7.90;99.90;;;;;;5134119;27;20185;-44
2023/11/16 09:12:59;;;;;;;5.45;1.60;;;8.00;99.90;;;;;;5115732;27;20055;-44
2023/11/16 09:15:25;;;;;;;6.70;1.75;;;8.10;99.90;;;;;;5134169;27;20046;-44
2023/11/16 09:17:52;;;;;;;6.00;1.75;;;8.20;99.90;;;;;;5133607;27;20047;-44
2023/11/16 09:20:19;;;;;;;7.07;1.73;;;8.20;99.90;;;;;;5133999;27;20399;-43
2023/11/16 09:22:49;;;;;;;4.05;1.60;;;8.30;99.90;;;;;;5133754;27;20042;-43
2023/11/16 09:25:15;;;;;;;6.10;1.52;;;8.30;99.90;;;;;;5114845;27;20035;-46
2023/11/16 09:27:50;;;;;;;8.45;1.90;;;8.40;99.90;;;;;;5133468;27;20118;-42
2023/11/16 09:30:22;;;;;;;5.35;1.77;;;8.50;99.90;;;;;;5133511;27;20043;-43
2023/11/16 09:32:52;;;;;;;3.88;1.50;;;8.50;99.90;;;;;;5133294;27;20082;-42
2023/11/16 09:35:21;;;;;;;5.65;1.67;;;8.50;99.90;;;;;;5133402;27;20031;-42
2023/11/16 09:37:55;;;;;;;6.25;1.67;;;8.50;99.90;;;;;;5133595;27;20047;-43
2023/11/16 09:40:28;;;;;;;3.42;1.30;;;8.70;99.90;;;;;;5133717;27;20118;-42
2023/11/16 09:43:00;;;;;;;5.57;1.75;;;8.70;99.90;;;;;;5132918;27;20039;-42
2023/11/16 09:45:27;;;;;;;5.32;1.42;;;8.80;99.90;;;;;;5150557;27;20111;-41
2023/11/16 09:48:10;;;;;;;6.65;1.63;;;8.90;99.90;;;;;;5153982;27;20037;-43
2023/11/16 09:50:41;;;;;;;4.18;1.50;;;9.00;99.90;;;;;;5136192;27;20027;-42
2023/11/16 09:53:14;;;;;;;7.93;1.40;;;9.20;99.90;;;;;;5153758;27;20488;-43
2023/11/16 09:55:44;;;;;;;8.65;2.10;;;9.30;99.90;;;;;;5144763;27;20051;-47
2023/11/16 09:58:17;;;;;;;9.85;1.40;;;9.40;99.90;;;;;;5123941;27;20043;-46
2023/11/16 10:00:48;;;;;;;6.60;1.88;;;9.60;99.90;;;;;;5132957;27;20039;-45
2023/11/16 10:03:21;;;;;;;6.20;1.92;;;9.70;99.90;;;;;;5133075;27;20110;-44
2023/11/16 10:05:47;;;;;;;6.85;1.85;;;9.90;99.90;;;;;;5132964;27;20107;-44
2023/11/16 10:08:15;;;;;;;7.97;1.70;;;10.00;99.90;;;;;;5133150;27;20078;-45
2023/11/16 10:10:52;;;;;;;5.25;1.20;;;10.10;99.90;;;;;;5133049;27;20456;-43
2023/11/16 10:13:17;;;;;;;4.28;1.25;;;10.10;99.90;;;;;;5132875;27;20389;-46
2023/11/16 10:15:45;;;;;;;4.32;1.40;;;10.20;99.90;;;;;;5132714;27;20068;-45
2023/11/16 10:18:11;;;;;;;6.22;1.60;;;10.20;99.90;;;;;;5114382;27;20047;-43
2023/11/16 10:20:43;;;;;;;2.08;1.10;;;10.40;99.90;;;;;;5132541;27;20078;-45
2023/11/16 10:23:11;;;;;;;6.80;1.13;;;10.50;99.90;;;;;;5118947;28;20523;-46
2023/11/16 10:25:38;;;;;;;3.58;1.15;;;10.60;99.90;;;;;;5132764;27;20079;-47
2023/11/16 10:28:34;;;;;;;4.30;0.90;;;10.60;99.90;;;;;;5132474;27;20046;-44
2023/11/16 10:31:01;;;;;;;2.60;0.80;;;10.70;99.90;;;;;;5111377;28;20050;-44
2023/11/16 10:33:28;;;;;;;4.50;0.85;;;10.70;99.90;;;;;;5132991;28;20475;-44
2023/11/16 10:35:57;;;;;;;4.60;0.70;;;10.90;99.90;;;;;;5133002;27;20142;-43
2023/11/16 10:38:26;;;;;;;4.32;0.63;;;11.00;99.90;;;;;;5121698;27;20073;-43
2023/11/16 10:40:53;;;;;;;1.83;0.70;;;11.10;99.90;;;;;;5136812;27;20079;-43
2023/11/16 10:43:25;;;;;;;3.95;0.77;;;11.20;99.90;;;;;;5136548;27;20065;-43
2023/11/16 10:45:52;;;;;;;7.93;1.08;;;11.30;99.90;;;;;;5136814;27;20122;-43
2023/11/16 10:48:27;;;;;;;2.97;0.70;;;11.40;99.90;;;;;;5136506;27;20031;-44
2023/11/16 10:50:58;;;;;;;5.85;1.05;;;11.50;99.90;;;;;;5136514;27;20042;-46
2023/11/16 10:53:29;;;;;;;4.05;1.00;;;11.60;99.90;;;;;;5136579;27;20109;-45
2023/11/16 10:55:55;;;;;;;4.35;0.73;;;11.70;99.90;;;;;;5129681;27;20545;-47
2023/11/16 10:58:29;;;;;;;3.60;0.73;;;11.80;99.90;;;;;;5147052;27;20121;-44
2023/11/16 11:01:02;;;;;;;2.78;1.10;;;11.80;99.90;;;;;;5157263;27;20034;-44
2023/11/16 11:03:28;;;;;;;5.75;1.10;;;11.80;99.90;;;;;;5156933;27;20448;-45
2023/11/16 11:05:58;;;;;;;4.85;1.55;;;12.00;99.90;;;;;;5157065;27;20031;-45
2023/11/16 11:08:37;;;;;;;3.88;0.80;;;11.90;99.90;;;;;;5156806;27;20070;-44
2023/11/16 11:11:12;;;;;;;1.15;0.60;;;12.00;99.90;;;;;;5157061;27;20109;-45
2023/11/16 11:13:43;;;;;;;5.32;1.05;;;12.00;99.90;;;;;;5157059;27;20091;-44
2023/11/16 11:16:12;;;;;;;3.47;1.48;;;12.00;99.90;;;;;;5156996;27;20095;-45
2023/11/16 11:18:46;;;;;;;6.15;1.08;;;11.90;99.90;;;;;;5156830;27;20486;-44
2023/11/16 11:21:14;;;;;;;7.13;1.60;;;11.90;99.90;;;;;;5156857;27;20035;-44
2023/11/16 11:23:43;;;;;;;4.88;1.30;;;11.90;99.90;;;;;;5156910;27;20106;-43
2023/11/16 11:26:13;;;;;;;2.80;1.00;;;11.90;99.90;;;;;;5156694;27;20078;-44
2023/11/16 11:28:41;;;;;;;4.22;0.98;;;11.90;99.90;;;;;;5156816;27;20070;-43
2023/11/16 11:31:10;;;;;;;3.22;1.23;;;11.90;99.90;;;;;;5156605;27;20077;-44
2023/11/16 11:33:43;;;;;;;4.10;1.08;;;12.00;99.90;;;;;;5156479;27;20039;-45
2023/11/16 11:36:12;;;;;;;2.33;0.77;;;12.00;99.90;;;;;;5156573;27;20113;-44
2023/11/16 11:38:39;;;;;;;1.83;0.93;;;12.10;99.90;;;;;;5156447;27;20030;-46
2023/11/16 11:41:12;;;;;;;5.93;1.27;;;12.10;99.90;;;;;;5156580;27;20371;-42
2023/11/16 11:43:39;;;;;;;3.25;0.95;;;12.20;99.90;;;;;;5155774;27;20556;-42
2023/11/16 11:46:09;;;;;;;4.43;1.08;;;12.10;99.90;;;;;;5156143;27;20043;-43
2023/11/16 11:48:40;;;;;;;2.97;1.13;;;12.10;99.90;;;;;;5155688;27;20035;-44
2023/11/16 11:51:08;;;;;;;2.00;0.70;;;12.20;99.90;;;;;;5137783;27;20078;-44
2023/11/16 11:53:34;;;;;;;2.15;0.90;;;12.30;99.90;;;;;;5156066;27;20114;-45
2023/11/16 11:56:10;;;;;;;5.93;1.20;;;12.30;99.90;;;;;;5141592;27;20047;-44
2023/11/16 11:58:37;;;;;;;4.63;1.17;;;12.30;99.90;;;;;;5129707;27;20118;-44
2023/11/16 12:01:04;;;;;;;5.57;1.13;;;12.20;99.90;;;;;;5135255;27;20492;-45
2023/11/16 12:03:30;;;;;;;8.85;1.00;;;12.20;99.90;;;;;;5135374;27;20066;-46
2023/11/16 12:06:00;;;;;;;3.58;0.85;;;12.00;99.90;;;;;;5134701;27;20493;-46
2023/11/16 12:08:37;;;;;;;4.95;1.00;;;11.90;99.90;;;;;;5135112;27;20031;-47
2023/11/16 12:11:04;;;;;;;3.97;1.23;;;11.70;99.90;;;;;;5134757;27;20070;-45
2023/11/16 12:13:31;;;;;;;3.28;0.70;;;11.60;99.90;;;;;;5135376;27;20039;-44
2023/11/16 12:15:57;;;;;;;0.98;0.88;;;11.30;99.90;;;;;;5134930;27;20305;-44
2023/11/16 12:18:23;;;;;;;2.15;0.85;;;11.20;99.90;;;;;;5134772;27;20051;-44
2023/11/16 12:20:53;;;;;;;4.70;0.90;;;11.10;99.90;;;;;;5134520;27;20042;-45
2023/11/16 12:23:19;;;;;;;4.80;0.85;;;11.00;99.90;;;;;;5134774;27;20519;-44
2023/11/16 12:25:46;;;;;;;4.35;0.60;;;10.90;99.90;;;;;;5134650;27;20188;-42
2023/11/16 12:28:12;;;;;;;7.22;0.90;;;10.80;99.90;;;;;;5134857;27;20381;-43
2023/11/16 12:30:38;;;;;;;4.40;0.80;;;10.70;99.90;;;;;;5134544;27;20039;-43
2023/11/16 12:33:11;;;;;;;3.28;0.63;;;10.60;99.90;;;;;;5134445;27;20023;-43
2023/11/16 12:35:39;;;;;;;1.73;0.50;;;10.60;99.90;;;;;;5134452;27;20055;-45
2023/11/16 12:38:06;;;;;;;1.48;0.73;;;10.50;99.90;;;;;;5134278;27;20184;-44
2023/11/16 12:40:32;;;;;;;3.10;1.00;;;10.50;99.90;;;;;;5134306;27;20389;-43
2023/11/16 12:42:58;;;;;;;4.82;1.13;;;10.50;99.90;;;;;;5134095;27;20112;-44
2023/11/16 12:45:24;;;;;;;3.85;1.10;;;10.40;99.90;;;;;;5134404;27;20047;-45
2023/11/16 12:47:49;;;;;;;2.08;1.20;;;10.40;99.90;;;;;;5134539;27;20841;-48
2023/11/16 12:50:16;;;;;;;3.83;0.88;;;10.40;99.90;;;;;;5133931;27;20027;-46
2023/11/16 12:52:41;;;;;;;2.22;0.80;;;10.40;99.90;;;;;;5134108;27;20035;-46
2023/11/16 12:55:12;;;;;;;2.78;0.77;;;10.60;99.90;;;;;;5133939;27;20550;-44
2023/11/16 12:57:38;;;;;;;5.63;0.70;;;10.60;99.90;;;;;;5120692;27;20487;-45
2023/11/16 13:00:08;;;;;;;3.70;0.77;;;10.60;99.90;;;;;;5133426;27;20047;-45